Time;durP1;ratioP1;P1;durP2;ratioP2;P2;SDS_P1;SDS_P2;PMS_P1;PMS_P2;Temp;Humidity;BMP_temperature;BMP_pressure;BME280_temperature;BME280_humidity;BME280_pressure;Samples;Min_cycle;Max_cycle;Signal;HPM_P1;HPM_P2
2023/09/11 00:00:20;;;;;;;11.15;7.25;;;21.30;99.90;;;;;;5036258;28;20025;-54
2023/09/11 00:02:45;;;;;;;11.43;7.43;;;21.20;99.90;;;;;;5053931;28;20060;-58
2023/09/11 00:05:11;;;;;;;13.57;7.55;;;21.40;99.90;;;;;;5053913;28;20029;-55
2023/09/11 00:07:37;;;;;;;13.00;7.47;;;21.30;99.90;;;;;;5053891;28;20549;-59
2023/09/11 00:10:02;;;;;;;;;;;21.30;99.90;;;;;;5054603;28;20036;-58
2023/09/11 00:12:28;;;;;;;10.65;7.60;;;21.50;99.90;;;;;;5053849;28;19904;-57
2023/09/11 00:14:54;;;;;;;11.07;7.55;;;21.40;99.90;;;;;;5053542;28;20029;-57
2023/09/11 00:17:20;;;;;;;11.25;7.28;;;21.20;99.90;;;;;;5053677;28;20083;-58
2023/09/11 00:19:45;;;;;;;;;;;21.10;99.90;;;;;;5054006;28;20025;-56
2023/09/11 00:22:11;;;;;;;10.80;6.88;;;21.00;99.90;;;;;;5053784;28;20066;-55
2023/09/11 00:24:36;;;;;;;9.60;6.93;;;20.90;99.90;;;;;;5053439;28;20032;-58
2023/09/11 00:27:02;;;;;;;11.70;7.40;;;20.90;99.90;;;;;;5053468;28;20407;-56
2023/09/11 00:29:28;;;;;;;14.77;7.88;;;20.80;99.90;;;;;;5053469;28;20013;-55
2023/09/11 00:31:53;;;;;;;11.00;7.20;;;20.90;99.90;;;;;;5053746;28;20025;-57
2023/09/11 00:34:19;;;;;;;11.05;7.00;;;20.70;99.90;;;;;;5053626;28;20059;-57
2023/09/11 00:36:44;;;;;;;8.95;7.43;;;20.60;99.90;;;;;;5053320;28;20487;-54
2023/09/11 00:39:09;;;;;;;10.45;7.32;;;20.60;99.90;;;;;;5054123;28;20028;-59
2023/09/11 00:41:35;;;;;;;10.98;7.40;;;20.60;99.90;;;;;;5035771;28;20036;-58
2023/09/11 00:44:01;;;;;;;10.95;7.40;;;20.60;99.90;;;;;;5053235;28;20021;-58
2023/09/11 00:46:27;;;;;;;8.23;6.80;;;20.50;99.90;;;;;;5053137;28;20115;-59
2023/09/11 00:48:55;;;;;;;10.48;7.40;;;20.50;99.90;;;;;;5052789;28;20067;-57
2023/09/11 00:51:21;;;;;;;9.95;7.38;;;20.50;99.90;;;;;;5053180;28;20023;-58
2023/09/11 00:53:48;;;;;;;10.80;7.35;;;20.50;99.90;;;;;;5053028;28;20528;-57
2023/09/11 00:56:13;;;;;;;11.90;7.38;;;20.50;99.90;;;;;;5053258;28;20090;-54
2023/09/11 00:58:39;;;;;;;12.73;7.82;;;20.50;99.90;;;;;;5052943;28;20096;-56
2023/09/11 01:01:05;;;;;;;11.57;7.10;;;20.50;99.90;;;;;;5053177;28;20608;-57
2023/09/11 01:03:31;;;;;;;10.13;7.32;;;20.50;99.90;;;;;;5053126;28;20068;-57
2023/09/11 01:05:57;;;;;;;10.73;7.03;;;20.50;99.90;;;;;;5052955;28;20108;-58
2023/09/11 01:08:22;;;;;;;;;;;20.50;99.90;;;;;;5053365;28;20040;-56
2023/09/11 01:10:49;;;;;;;11.52;7.53;;;20.70;99.90;;;;;;5052898;28;19904;-58
2023/09/11 01:13:15;;;;;;;11.23;7.05;;;20.50;99.90;;;;;;5052592;28;20024;-56
2023/09/11 01:15:54;;;;;;;10.13;7.32;;;20.50;99.90;;;;;;5053088;28;20021;-53
2023/09/11 01:18:28;;;;;;;10.38;7.03;;;20.40;99.90;;;;;;5053202;28;20040;-53
2023/09/11 01:21:20;;;;;;;11.93;7.13;;;20.40;99.90;;;;;;5053025;28;20071;-57
2023/09/11 01:23:58;;;;;;;12.27;7.55;;;20.50;99.90;;;;;;4971967;28;20038;-56
2023/09/11 01:26:54;;;;;;;12.48;7.53;;;20.40;99.90;;;;;;4955947;28;20023;-54
2023/09/11 01:29:26;;;;;;;8.45;7.35;;;20.20;99.90;;;;;;4971934;28;20122;-56
2023/09/11 01:31:54;;;;;;;8.52;7.22;;;20.10;99.90;;;;;;4972385;28;20050;-53
2023/09/11 01:34:20;;;;;;;11.50;7.43;;;20.10;99.90;;;;;;4972156;28;20047;-57
2023/09/11 01:36:45;;;;;;;10.77;7.20;;;20.10;99.90;;;;;;4972354;28;20149;-55
2023/09/11 01:39:11;;;;;;;13.23;7.75;;;20.10;99.90;;;;;;4972310;28;20049;-55
2023/09/11 01:41:41;;;;;;;;;;;20.00;99.90;;;;;;4972588;28;20089;-58
2023/09/11 01:44:26;;;;;;;10.27;7.45;;;20.00;99.90;;;;;;4978895;28;19935;-56
2023/09/11 01:46:53;;;;;;;15.27;7.50;;;20.00;99.90;;;;;;4991378;28;20030;-56
2023/09/11 01:49:20;;;;;;;10.98;7.53;;;20.10;99.90;;;;;;4991311;28;20030;-57
2023/09/11 01:51:47;;;;;;;14.80;7.72;;;20.00;99.90;;;;;;4991341;28;20033;-55
2023/09/11 01:54:12;;;;;;;;;;;19.90;99.90;;;;;;4991469;28;20391;-57
2023/09/11 01:56:38;;;;;;;16.85;8.57;;;20.10;99.90;;;;;;4991508;28;19912;-55
2023/09/11 01:59:04;;;;;;;12.48;7.40;;;20.30;99.90;;;;;;4976336;28;20043;-57
2023/09/11 02:01:29;;;;;;;12.13;8.05;;;20.30;99.90;;;;;;5031725;28;20030;-58
2023/09/11 02:03:55;;;;;;;14.88;7.57;;;20.20;99.90;;;;;;5037856;28;20037;-58
2023/09/11 02:06:20;;;;;;;14.63;7.15;;;20.00;99.90;;;;;;5036459;28;20025;-54
2023/09/11 02:08:46;;;;;;;10.43;7.25;;;20.00;99.90;;;;;;5036786;28;20031;-58
2023/09/11 02:11:11;;;;;;;11.75;7.32;;;19.90;99.90;;;;;;5036654;28;20029;-58
2023/09/11 02:13:37;;;;;;;11.73;7.15;;;19.80;99.90;;;;;;5035922;28;20022;-59
2023/09/11 02:16:03;;;;;;;10.98;7.78;;;19.70;99.90;;;;;;5036278;28;20029;-55
2023/09/11 02:18:28;;;;;;;11.70;6.97;;;20.00;99.90;;;;;;5036310;28;20085;-56
2023/09/11 02:20:54;;;;;;;12.90;7.53;;;19.90;99.90;;;;;;5036132;28;20041;-58
2023/09/11 02:23:20;;;;;;;9.70;7.07;;;19.70;99.90;;;;;;5036115;28;20025;-59
2023/09/11 02:25:48;;;;;;;10.68;7.22;;;19.60;99.90;;;;;;5036001;28;20484;-56
2023/09/11 02:28:13;;;;;;;10.10;6.95;;;19.90;99.90;;;;;;5049455;28;20021;-57
2023/09/11 02:30:39;;;;;;;16.38;7.82;;;19.90;99.90;;;;;;5060585;28;20471;-59
2023/09/11 02:33:05;;;;;;;12.70;7.90;;;19.90;99.90;;;;;;5039398;28;20025;-56
2023/09/11 02:35:31;;;;;;;11.68;7.75;;;19.90;99.90;;;;;;5055966;28;20024;-55
2023/09/11 02:37:57;;;;;;;10.77;8.13;;;19.70;99.90;;;;;;5055569;28;20035;-58
2023/09/11 02:40:23;;;;;;;11.93;7.43;;;19.60;99.90;;;;;;5055523;28;20040;-57
2023/09/11 02:42:48;;;;;;;13.93;7.90;;;19.50;99.90;;;;;;5055474;28;20503;-58
2023/09/11 02:45:14;;;;;;;11.50;7.85;;;19.40;99.90;;;;;;5055159;28;20029;-57
2023/09/11 02:47:39;;;;;;;13.73;6.90;;;19.50;99.90;;;;;;5055854;28;20052;-58
2023/09/11 02:50:05;;;;;;;12.07;7.40;;;19.40;99.90;;;;;;5055636;28;20048;-55
2023/09/11 02:52:31;;;;;;;12.65;7.95;;;19.70;99.90;;;;;;5055347;28;20059;-58
2023/09/11 02:54:56;;;;;;;12.52;8.18;;;19.70;99.90;;;;;;5055068;28;20049;-58
2023/09/11 02:57:22;;;;;;;12.02;7.15;;;19.70;99.90;;;;;;5055124;28;20024;-58
2023/09/11 02:59:47;;;;;;;11.07;7.50;;;19.70;99.90;;;;;;5055281;28;20033;-54
2023/09/11 03:02:13;;;;;;;10.57;7.03;;;19.80;99.90;;;;;;5055139;28;20550;-54
2023/09/11 03:04:38;;;;;;;10.20;7.05;;;19.80;99.90;;;;;;5054882;28;20037;-55
2023/09/11 03:07:04;;;;;;;12.25;7.20;;;19.70;99.90;;;;;;5054956;28;20410;-58
2023/09/11 03:09:29;;;;;;;10.73;7.30;;;19.50;99.90;;;;;;5055485;28;20037;-57
2023/09/11 03:11:56;;;;;;;10.88;7.43;;;19.30;99.90;;;;;;5053919;28;20571;-58
2023/09/11 03:14:21;;;;;;;;;;;19.30;99.90;;;;;;5054930;28;20067;-55
2023/09/11 03:16:47;;;;;;;10.50;7.70;;;19.20;99.90;;;;;;5054897;28;19904;-53
2023/09/11 03:19:13;;;;;;;14.13;7.50;;;19.20;99.90;;;;;;5055855;28;20107;-58
2023/09/11 03:21:38;;;;;;;12.57;7.90;;;19.20;99.90;;;;;;5036915;28;20021;-58
2023/09/11 03:24:04;;;;;;;8.38;7.13;;;19.10;99.90;;;;;;5054654;28;20568;-56
2023/09/11 03:26:30;;;;;;;9.90;6.90;;;19.20;99.90;;;;;;5054766;28;20506;-58
2023/09/11 03:28:55;;;;;;;10.77;8.23;;;19.40;99.90;;;;;;5054604;28;20031;-57
2023/09/11 03:31:21;;;;;;;9.75;6.97;;;19.30;99.90;;;;;;5054767;28;20029;-55
2023/09/11 03:33:47;;;;;;;11.70;6.53;;;19.30;99.90;;;;;;5054550;28;20031;-56
2023/09/11 03:36:14;;;;;;;10.02;7.65;;;19.20;99.90;;;;;;5054770;28;20438;-58
2023/09/11 03:38:40;;;;;;;12.60;7.40;;;19.20;99.90;;;;;;5054595;28;20128;-58
2023/09/11 03:41:05;;;;;;;14.27;7.88;;;19.20;99.90;;;;;;5054723;28;20064;-58
2023/09/11 03:43:31;;;;;;;12.50;7.00;;;19.20;99.90;;;;;;5036329;28;20083;-59
2023/09/11 03:45:57;;;;;;;11.98;7.88;;;19.20;99.90;;;;;;5053922;28;20364;-57
2023/09/11 03:48:22;;;;;;;11.73;7.15;;;19.20;99.90;;;;;;5054246;28;20025;-59
2023/09/11 03:50:48;;;;;;;13.65;7.50;;;19.20;99.90;;;;;;5054135;28;20032;-59
2023/09/11 03:53:13;;;;;;;13.18;7.53;;;19.40;99.90;;;;;;5053980;28;20037;-59
2023/09/11 03:55:39;;;;;;;13.00;7.90;;;19.20;99.90;;;;;;5054190;28;20395;-57
2023/09/11 03:58:04;;;;;;;10.77;7.80;;;19.10;99.90;;;;;;5054077;28;20052;-58
2023/09/11 04:00:30;;;;;;;14.45;7.85;;;19.10;99.90;;;;;;5054171;28;20052;-57
2023/09/11 04:02:55;;;;;;;11.27;7.43;;;19.10;99.90;;;;;;5054077;28;20136;-58
2023/09/11 04:05:21;;;;;;;11.27;7.88;;;19.00;99.90;;;;;;5054118;28;20017;-57
2023/09/11 04:07:46;;;;;;;14.15;7.93;;;19.00;99.90;;;;;;5053838;28;20036;-57
2023/09/11 04:10:12;;;;;;;11.90;7.85;;;19.00;99.90;;;;;;5054612;28;20025;-60
2023/09/11 04:12:38;;;;;;;12.73;8.38;;;19.00;99.90;;;;;;5036012;28;20025;-60
2023/09/11 04:15:04;;;;;;;12.32;8.45;;;19.00;99.90;;;;;;5053527;28;20398;-61
2023/09/11 04:17:29;;;;;;;11.18;7.57;;;18.90;99.90;;;;;;5053970;28;20501;-58
2023/09/11 04:19:55;;;;;;;13.82;7.47;;;18.90;99.90;;;;;;5054245;28;20025;-60
2023/09/11 04:22:21;;;;;;;10.45;7.50;;;18.90;99.90;;;;;;5053885;28;20072;-60
2023/09/11 04:24:46;;;;;;;;;;;18.80;99.90;;;;;;5054096;28;20036;-60
2023/09/11 04:27:12;;;;;;;11.23;7.75;;;18.80;99.90;;;;;;5053468;28;20274;-59
2023/09/11 04:29:40;;;;;;;12.48;8.02;;;18.80;99.90;;;;;;5053707;28;20451;-60
2023/09/11 04:32:05;;;;;;;12.35;7.78;;;18.80;99.90;;;;;;5053532;28;20048;-58
2023/09/11 04:34:31;;;;;;;12.45;8.05;;;18.80;99.90;;;;;;5052537;28;20059;-59
2023/09/11 04:36:56;;;;;;;11.45;8.23;;;18.80;99.90;;;;;;5054040;28;20033;-60
2023/09/11 04:39:22;;;;;;;13.13;8.75;;;18.80;99.90;;;;;;5053744;28;20025;-60
2023/09/11 04:41:48;;;;;;;16.92;9.32;;;18.80;99.90;;;;;;5053672;28;20074;-61
2023/09/11 04:44:13;;;;;;;13.52;8.90;;;18.80;99.90;;;;;;5053151;28;20041;-55
2023/09/11 04:46:39;;;;;;;15.45;9.13;;;18.80;99.90;;;;;;5048520;28;20025;-59
2023/09/11 04:49:05;;;;;;;12.70;9.32;;;18.80;99.90;;;;;;5044185;28;20021;-59
2023/09/11 04:51:31;;;;;;;14.02;8.68;;;18.80;99.90;;;;;;5041983;28;20040;-57
2023/09/11 04:53:56;;;;;;;14.98;8.93;;;18.80;99.90;;;;;;5041161;28;20029;-60
2023/09/11 04:56:22;;;;;;;13.10;7.93;;;18.80;99.90;;;;;;5047530;28;20029;-59
2023/09/11 04:58:47;;;;;;;14.50;8.73;;;18.80;99.90;;;;;;5052742;28;20275;-62
2023/09/11 05:01:13;;;;;;;12.98;8.20;;;18.80;99.90;;;;;;5046109;28;20037;-60
2023/09/11 05:03:39;;;;;;;15.30;8.02;;;18.90;99.90;;;;;;5042359;28;20025;-60
2023/09/11 05:06:05;;;;;;;17.10;9.32;;;19.10;99.90;;;;;;5033190;28;20109;-60
2023/09/11 05:08:30;;;;;;;11.32;7.72;;;19.20;99.90;;;;;;5034011;28;20025;-60
2023/09/11 05:10:56;;;;;;;10.77;8.02;;;19.20;99.90;;;;;;5043564;28;20032;-61
2023/09/11 05:13:21;;;;;;;10.75;8.18;;;19.10;99.90;;;;;;5042755;28;20026;-60
2023/09/11 05:15:48;;;;;;;13.23;7.78;;;18.90;99.90;;;;;;5041454;28;20456;-60
2023/09/11 05:18:14;;;;;;;10.85;7.10;;;18.80;99.90;;;;;;5052833;28;20032;-61
2023/09/11 05:20:40;;;;;;;;;;;18.80;99.90;;;;;;5035294;28;20043;-61
2023/09/11 05:23:05;;;;;;;14.05;7.75;;;18.80;99.90;;;;;;5053084;28;19995;-63
2023/09/11 05:25:31;;;;;;;12.48;7.68;;;18.80;99.90;;;;;;5053322;28;20029;-60
2023/09/11 05:27:56;;;;;;;14.63;7.93;;;18.80;99.90;;;;;;5050932;28;20090;-61
2023/09/11 05:30:22;;;;;;;12.50;7.95;;;18.80;99.90;;;;;;5052932;28;20104;-60
2023/09/11 05:32:51;;;;;;;15.57;7.97;;;18.90;99.90;;;;;;5056478;28;20114;-59
2023/09/11 05:35:17;;;;;;;11.88;6.97;;;18.90;99.90;;;;;;5056918;28;20040;-59
2023/09/11 05:37:43;;;;;;;14.95;7.40;;;19.00;99.90;;;;;;5056926;28;20052;-60
2023/09/11 05:40:09;;;;;;;12.05;8.00;;;19.00;99.90;;;;;;5057432;28;20071;-55
2023/09/11 05:42:34;;;;;;;11.35;8.07;;;19.00;99.90;;;;;;5056547;28;20100;-56
2023/09/11 05:45:00;;;;;;;11.65;8.32;;;19.00;99.90;;;;;;5056345;28;20488;-58
2023/09/11 05:47:25;;;;;;;16.42;8.73;;;19.10;99.90;;;;;;5056460;28;20021;-58
2023/09/11 05:49:51;;;;;;;15.30;8.48;;;19.10;99.90;;;;;;5056893;28;20033;-56
2023/09/11 05:52:16;;;;;;;17.48;7.85;;;19.10;99.90;;;;;;5038716;28;20021;-56
2023/09/11 05:54:42;;;;;;;17.67;9.23;;;19.10;99.90;;;;;;5056414;28;20056;-55
2023/09/11 05:57:08;;;;;;;18.95;9.13;;;19.10;99.90;;;;;;5056284;28;20064;-58
2023/09/11 05:59:33;;;;;;;12.23;8.57;;;19.10;99.90;;;;;;5056299;28;20036;-55
2023/09/11 06:01:59;;;;;;;14.48;9.35;;;19.20;99.90;;;;;;5056256;28;20032;-56
2023/09/11 06:04:24;;;;;;;11.88;8.10;;;19.20;99.90;;;;;;5056483;28;20476;-55
2023/09/11 06:06:51;;;;;;;16.38;9.07;;;19.20;99.90;;;;;;5056483;28;20029;-61
2023/09/11 06:09:16;;;;;;;13.00;9.00;;;19.20;99.90;;;;;;5056318;28;20049;-60
2023/09/11 06:11:42;;;;;;;15.80;9.80;;;19.30;99.90;;;;;;5055951;28;20537;-61
2023/09/11 06:14:08;;;;;;;12.73;8.85;;;19.30;99.90;;;;;;5055532;28;20430;-59
2023/09/11 06:16:33;;;;;;;13.75;8.73;;;19.30;99.90;;;;;;5037889;28;20063;-60
2023/09/11 06:18:59;;;;;;;10.68;8.43;;;19.40;99.90;;;;;;5055559;28;20475;-57
2023/09/11 06:21:25;;;;;;;13.25;9.13;;;19.50;99.90;;;;;;5055847;28;20032;-59
2023/09/11 06:23:50;;;;;;;10.95;8.15;;;19.60;99.90;;;;;;5055327;28;20040;-56
2023/09/11 06:26:16;;;;;;;18.55;10.00;;;19.80;99.90;;;;;;5055849;28;20021;-56
2023/09/11 06:28:42;;;;;;;18.23;8.48;;;19.90;99.90;;;;;;5055372;28;20021;-59
2023/09/11 06:31:09;;;;;;;14.95;8.73;;;19.80;99.90;;;;;;5056350;28;20032;-60
2023/09/11 06:33:34;;;;;;;;;;;19.80;99.90;;;;;;5056030;28;20071;-59
2023/09/11 06:36:00;;;;;;;16.33;9.30;;;19.90;99.90;;;;;;5056043;28;19951;-59
2023/09/11 06:38:25;;;;;;;12.82;8.63;;;19.80;99.90;;;;;;5055457;28;20032;-57
2023/09/11 06:40:51;;;;;;;15.05;8.98;;;19.70;99.90;;;;;;5055483;28;20040;-56
2023/09/11 06:43:16;;;;;;;20.55;9.68;;;19.90;99.90;;;;;;5055025;28;20071;-59
2023/09/11 06:45:42;;;;;;;16.48;9.65;;;19.90;99.90;;;;;;5053786;28;20056;-64
2023/09/11 06:48:11;;;;;;;13.80;9.57;;;20.00;99.90;;;;;;5055457;28;20017;-60
2023/09/11 06:50:38;;;;;;;19.00;9.80;;;20.00;99.90;;;;;;5055272;28;20029;-60
2023/09/11 06:53:06;;;;;;;17.75;10.18;;;20.00;99.90;;;;;;5055568;28;20041;-58
2023/09/11 06:55:32;;;;;;;14.38;9.40;;;20.10;99.90;;;;;;5055058;28;20065;-59
2023/09/11 06:58:01;;;;;;;17.27;10.05;;;20.10;99.90;;;;;;5055130;28;20076;-59
2023/09/11 07:00:26;;;;;;;17.38;10.10;;;20.10;99.90;;;;;;5055082;28;20071;-60
2023/09/11 07:02:52;;;;;;;15.20;9.60;;;20.10;99.90;;;;;;5055264;28;20025;-61
2023/09/11 07:05:18;;;;;;;15.45;9.95;;;20.20;99.90;;;;;;5054762;28;20110;-60
2023/09/11 07:07:44;;;;;;;18.05;11.25;;;20.30;99.90;;;;;;5055007;28;20444;-60
2023/09/11 07:10:11;;;;;;;13.48;10.15;;;20.30;99.90;;;;;;5054929;28;20021;-61
2023/09/11 07:12:38;;;;;;;20.02;10.85;;;20.40;99.90;;;;;;5054851;28;20536;-61
2023/09/11 07:15:05;;;;;;;17.25;11.27;;;20.60;99.90;;;;;;5054463;28;20063;-61
2023/09/11 07:17:30;;;;;;;13.63;11.23;;;20.70;99.90;;;;;;5054693;28;20495;-60
2023/09/11 07:19:56;;;;;;;15.05;10.80;;;20.70;99.90;;;;;;5055040;28;20064;-58
2023/09/11 07:22:22;;;;;;;18.50;11.98;;;20.80;99.90;;;;;;5054642;28;20039;-60
2023/09/11 07:24:47;;;;;;;14.15;10.38;;;20.80;99.90;;;;;;5054923;28;20052;-61
2023/09/11 07:27:13;;;;;;;15.00;10.35;;;20.80;99.90;;;;;;5054485;28;20029;-60
2023/09/11 07:29:40;;;;;;;16.88;10.40;;;20.90;99.90;;;;;;5055041;28;20044;-61
2023/09/11 07:32:06;;;;;;;15.55;10.88;;;20.90;99.90;;;;;;5054479;28;20100;-60
2023/09/11 07:34:32;;;;;;;16.67;10.57;;;21.00;99.90;;;;;;5054325;28;20502;-59
2023/09/11 07:36:57;;;;;;;14.60;10.32;;;21.10;99.90;;;;;;5054856;28;20025;-61
2023/09/11 07:39:23;;;;;;;14.57;10.25;;;21.20;99.90;;;;;;5054390;28;20410;-59
2023/09/11 07:41:49;;;;;;;20.55;11.52;;;21.30;99.90;;;;;;5054585;28;20067;-59
2023/09/11 07:44:14;;;;;;;17.60;11.30;;;21.30;99.90;;;;;;5053636;28;20422;-59
2023/09/11 07:46:40;;;;;;;18.10;10.60;;;21.40;99.90;;;;;;5054751;28;20031;-57
2023/09/11 07:49:05;;;;;;;15.63;10.57;;;21.50;99.90;;;;;;5054615;28;20112;-59
2023/09/11 07:51:31;;;;;;;18.17;10.93;;;21.60;99.90;;;;;;5055380;28;20025;-60
2023/09/11 07:53:57;;;;;;;16.20;10.15;;;21.60;99.90;;;;;;5036202;28;20052;-60
2023/09/11 07:56:22;;;;;;;14.90;9.98;;;21.70;99.90;;;;;;5053566;28;20051;-60
2023/09/11 07:58:51;;;;;;;18.55;9.82;;;21.80;99.90;;;;;;5052880;28;20025;-59
2023/09/11 08:01:18;;;;;;;13.65;9.77;;;21.90;99.90;;;;;;5053775;28;20104;-59
2023/09/11 08:03:44;;;;;;;14.88;10.40;;;21.90;99.90;;;;;;5053633;28;20391;-57
2023/09/11 08:06:10;;;;;;;17.65;9.70;;;22.00;99.90;;;;;;5053734;28;20029;-60
2023/09/11 08:08:36;;;;;;;14.32;9.43;;;22.10;99.90;;;;;;5053521;28;20029;-60
2023/09/11 08:11:12;;;;;;;14.27;9.60;;;22.20;99.90;;;;;;5053785;28;20087;-59
2023/09/11 08:13:38;;;;;;;14.38;9.73;;;22.30;99.90;;;;;;5053215;28;20509;-58
2023/09/11 08:16:03;;;;;;;;;;;22.40;99.90;;;;;;5054538;28;20036;-60
2023/09/11 08:18:29;;;;;;;15.52;9.43;;;22.40;99.90;;;;;;5053393;28;20001;-61
2023/09/11 08:20:54;;;;;;;17.30;11.07;;;22.50;99.90;;;;;;5053785;28;20100;-60
2023/09/11 08:23:21;;;;;;;15.20;9.40;;;22.50;99.90;;;;;;5053531;28;20400;-61
2023/09/11 08:25:47;;;;;;;16.45;9.15;;;22.60;99.90;;;;;;5053717;28;20021;-59
2023/09/11 08:28:12;;;;;;;13.90;9.52;;;22.80;99.90;;;;;;5053625;28;20107;-60
2023/09/11 08:30:38;;;;;;;;;;;22.70;99.90;;;;;;5053482;28;20377;-60
2023/09/11 08:33:03;;;;;;;14.65;8.93;;;22.80;99.90;;;;;;5053623;28;19998;-60
2023/09/11 08:35:29;;;;;;;;;;;23.00;99.90;;;;;;5053713;28;20025;-59
2023/09/11 08:37:55;;;;;;;11.40;8.52;;;23.10;99.90;;;;;;5053826;28;19925;-60
2023/09/11 08:40:30;;;;;;;15.05;9.15;;;23.30;99.90;;;;;;5053652;28;20027;-60
2023/09/11 08:42:56;;;;;;;14.90;10.05;;;23.60;99.90;;;;;;5052920;28;20025;-59
2023/09/11 08:45:23;;;;;;;;;;;24.20;99.90;;;;;;5053065;28;20099;-59
2023/09/11 08:47:49;;;;;;;10.50;7.13;;;26.60;99.90;;;;;;5053484;28;20397;-60
2023/09/11 08:50:16;;;;;;;11.43;8.13;;;29.60;99.90;;;;;;5036555;28;20459;-61
2023/09/11 08:52:42;;;;;;;11.07;7.10;;;32.60;96.00;;;;;;5053385;28;20052;-61
2023/09/11 08:55:11;;;;;;;10.20;7.13;;;34.80;91.60;;;;;;5053170;28;20064;-61
2023/09/11 08:57:40;;;;;;;11.90;6.72;;;36.50;88.60;;;;;;5053354;28;20486;-61
2023/09/11 09:00:09;;;;;;;12.63;7.40;;;37.90;84.00;;;;;;5053072;28;20063;-61
2023/09/11 09:02:36;;;;;;;10.15;7.50;;;39.40;80.00;;;;;;5053274;28;20028;-61
2023/09/11 09:05:03;;;;;;;10.63;6.95;;;40.20;76.40;;;;;;5052938;28;20022;-61
2023/09/11 09:07:33;;;;;;;9.13;7.07;;;41.00;74.40;;;;;;5053030;28;20403;-60
2023/09/11 09:10:00;;;;;;;9.05;6.60;;;41.50;71.30;;;;;;5052659;28;20074;-61
2023/09/11 09:12:27;;;;;;;9.45;6.60;;;42.10;70.00;;;;;;5053130;28;20106;-61
2023/09/11 09:14:53;;;;;;;9.95;6.68;;;41.80;68.10;;;;;;5052782;28;20021;-61
2023/09/11 09:17:18;;;;;;;11.15;7.53;;;41.40;68.80;;;;;;5052884;28;20025;-61
2023/09/11 09:19:44;;;;;;;8.25;6.88;;;42.30;67.60;;;;;;5052751;28;20027;-61
2023/09/11 09:22:12;;;;;;;8.60;7.25;;;40.40;67.60;;;;;;5052730;28;20021;-61
2023/09/11 09:24:47;;;;;;;11.48;6.50;;;40.20;70.30;;;;;;5052463;28;20103;-61
2023/09/11 09:27:13;;;;;;;10.85;6.57;;;41.40;69.30;;;;;;5052811;28;20078;-61
2023/09/11 09:29:39;;;;;;;11.13;6.65;;;42.90;66.40;;;;;;5052333;28;20021;-61
2023/09/11 09:32:07;;;;;;;8.80;6.40;;;43.30;64.00;;;;;;5052974;28;20024;-59
2023/09/11 09:34:34;;;;;;;7.85;6.30;;;42.80;64.80;;;;;;5052485;28;20055;-59
2023/09/11 09:37:01;;;;;;;8.20;6.40;;;43.40;64.30;;;;;;5052754;28;20392;-58
2023/09/11 09:39:28;;;;;;;10.35;6.50;;;43.80;63.10;;;;;;5052526;28;20080;-60
2023/09/11 09:42:07;;;;;;;9.43;6.38;;;44.00;63.60;;;;;;5052551;28;20022;-61
2023/09/11 09:44:47;;;;;;;8.20;6.80;;;43.80;64.60;;;;;;5052327;28;20052;-60
2023/09/11 09:47:16;;;;;;;6.97;6.35;;;43.40;62.10;;;;;;5052909;28;20395;-61
2023/09/11 09:49:43;;;;;;;6.32;5.70;;;43.90;61.80;;;;;;5052765;28;20055;-61
2023/09/11 09:52:09;;;;;;;8.57;6.78;;;43.80;61.80;;;;;;5052357;28;20031;-60
2023/09/11 09:54:46;;;;;;;10.10;6.47;;;41.70;63.50;;;;;;5052255;28;20551;-60
2023/09/11 09:57:13;;;;;;;10.20;6.88;;;42.40;63.10;;;;;;5052483;28;20032;-59
2023/09/11 09:59:40;;;;;;;8.00;6.75;;;42.10;62.80;;;;;;5051953;28;20025;-60
2023/09/11 10:02:09;;;;;;;12.07;6.18;;;42.20;63.20;;;;;;5052306;28;20021;-60
2023/09/11 10:04:34;;;;;;;7.90;6.10;;;42.90;63.10;;;;;;5052378;28;20036;-60
2023/09/11 10:07:00;;;;;;;9.10;6.28;;;43.50;62.70;;;;;;5052245;28;20029;-61
2023/09/11 10:09:26;;;;;;;11.27;6.95;;;43.60;61.00;;;;;;5052539;28;20115;-61
2023/09/11 10:11:51;;;;;;;8.73;6.18;;;42.00;62.80;;;;;;5052298;28;20476;-58
2023/09/11 10:14:18;;;;;;;9.38;6.70;;;42.90;61.50;;;;;;5051773;28;20373;-61
2023/09/11 10:16:45;;;;;;;10.00;6.68;;;42.80;61.60;;;;;;5052254;28;20025;-61
2023/09/11 10:19:12;;;;;;;9.45;6.22;;;42.00;62.50;;;;;;5052078;28;20105;-61
2023/09/11 10:21:38;;;;;;;8.05;6.90;;;42.10;62.20;;;;;;5055619;28;20009;-61
2023/09/11 10:24:05;;;;;;;8.10;6.50;;;42.10;62.50;;;;;;5055787;28;20029;-61
2023/09/11 10:27:00;;;;;;;7.55;5.90;;;42.40;61.80;;;;;;5056743;28;20021;-61
2023/09/11 10:29:51;;;;;;;12.98;7.82;;;43.30;61.90;;;;;;5055198;28;20044;-61
2023/09/11 10:32:25;;;;;;;8.93;6.75;;;44.00;61.10;;;;;;5057010;28;20025;-61
2023/09/11 10:34:52;;;;;;;8.60;6.57;;;43.90;59.80;;;;;;5056070;28;20537;-60
2023/09/11 10:37:20;;;;;;;9.75;6.32;;;43.30;60.30;;;;;;5056341;28;20033;-60
2023/09/11 10:39:49;;;;;;;8.63;7.25;;;43.10;60.90;;;;;;5056004;28;20047;-61
2023/09/11 10:42:15;;;;;;;9.15;7.10;;;43.50;60.30;;;;;;5055594;28;20033;-61
2023/09/11 10:44:41;;;;;;;8.02;6.13;;;43.00;60.90;;;;;;5055246;28;20549;-60
2023/09/11 10:47:07;;;;;;;7.35;6.32;;;41.90;60.30;;;;;;5055486;28;20029;-60
2023/09/11 10:49:37;;;;;;;9.43;6.20;;;41.90;61.40;;;;;;5055309;28;20046;-62
2023/09/11 10:52:07;;;;;;;12.48;7.00;;;41.20;61.30;;;;;;5055839;28;20483;-61
2023/09/11 10:54:35;;;;;;;9.57;7.15;;;40.30;63.00;;;;;;5055525;28;20044;-62
2023/09/11 10:57:00;;;;;;;7.70;6.45;;;40.60;63.80;;;;;;5055106;28;20028;-60
2023/09/11 10:59:27;;;;;;;8.95;6.97;;;41.30;62.90;;;;;;5054750;28;20120;-60
2023/09/11 11:01:53;;;;;;;8.35;6.10;;;42.00;62.10;;;;;;5055283;28;20025;-59
2023/09/11 11:04:22;;;;;;;7.57;6.32;;;42.70;61.00;;;;;;5054906;28;20033;-60
2023/09/11 11:06:51;;;;;;;7.63;5.57;;;41.50;60.50;;;;;;5055116;28;20021;-58
2023/09/11 11:09:32;;;;;;;9.50;6.40;;;39.30;62.80;;;;;;5054780;28;20104;-59
2023/09/11 11:12:08;;;;;;;10.40;6.90;;;37.30;65.60;;;;;;5055515;28;20021;-59
2023/09/11 11:14:35;;;;;;;9.00;6.53;;;35.40;68.50;;;;;;5054777;28;20532;-60
2023/09/11 11:17:10;;;;;;;11.65;7.15;;;34.00;70.80;;;;;;5055250;28;20025;-61
2023/09/11 11:19:45;;;;;;;9.18;6.93;;;33.10;72.50;;;;;;5054860;28;20028;-61
2023/09/11 11:22:28;;;;;;;;;;;31.90;74.90;;;;;;5055768;28;20037;-61
2023/09/11 11:24:57;;;;;;;12.10;7.53;;;31.50;76.30;;;;;;5055392;28;19919;-60
2023/09/11 11:27:23;;;;;;;10.35;6.60;;;31.30;76.70;;;;;;5053174;28;20021;-63
2023/09/11 11:29:49;;;;;;;11.60;7.40;;;31.20;77.20;;;;;;5053931;28;20107;-60
2023/09/11 11:32:20;;;;;;;9.38;7.07;;;31.20;77.20;;;;;;5052484;28;20031;-61
2023/09/11 11:34:46;;;;;;;10.68;6.90;;;31.00;77.20;;;;;;5034959;28;20030;-60
2023/09/11 11:37:12;;;;;;;6.97;5.68;;;30.70;78.40;;;;;;5035061;28;20021;-62
2023/09/11 11:39:38;;;;;;;8.48;6.95;;;30.50;79.30;;;;;;5035210;28;20041;-62
2023/09/11 11:42:05;;;;;;;9.93;6.07;;;30.30;78.50;;;;;;5035221;28;20135;-62
2023/09/11 11:44:33;;;;;;;10.40;6.40;;;30.30;78.60;;;;;;5034581;28;20034;-60
2023/09/11 11:46:59;;;;;;;10.30;6.82;;;30.00;78.80;;;;;;5034854;28;20415;-60
2023/09/11 11:49:25;;;;;;;13.57;6.93;;;30.00;79.00;;;;;;5016613;28;20029;-60
2023/09/11 11:51:50;;;;;;;12.07;7.00;;;29.70;79.50;;;;;;5034349;28;20361;-63
2023/09/11 11:54:26;;;;;;;10.35;6.80;;;29.60;79.70;;;;;;5034586;28;20033;-60
2023/09/11 11:56:59;;;;;;;13.52;6.88;;;29.60;80.50;;;;;;5034391;28;20037;-60
2023/09/11 11:59:29;;;;;;;13.25;7.57;;;29.60;81.30;;;;;;5050413;28;20090;-62
2023/09/11 12:01:55;;;;;;;15.65;8.43;;;29.60;81.40;;;;;;5054325;28;20040;-62
2023/09/11 12:04:20;;;;;;;10.90;7.43;;;29.70;81.40;;;;;;5054333;28;20040;-63
2023/09/11 12:06:46;;;;;;;8.82;6.57;;;29.80;80.50;;;;;;5053944;28;20052;-63
2023/09/11 12:09:18;;;;;;;11.10;6.63;;;29.80;80.30;;;;;;5035879;28;20435;-65
2023/09/11 12:11:44;;;;;;;10.73;7.07;;;29.80;80.80;;;;;;5054053;28;20387;-62
2023/09/11 12:14:14;;;;;;;11.00;6.35;;;29.80;80.80;;;;;;5053498;28;20029;-63
2023/09/11 12:16:40;;;;;;;9.77;7.38;;;29.80;81.10;;;;;;5054158;28;20108;-60
2023/09/11 12:19:06;;;;;;;10.95;7.25;;;29.90;81.30;;;;;;5054779;28;20104;-58
2023/09/11 12:21:32;;;;;;;11.98;6.65;;;29.90;81.00;;;;;;5054719;28;20029;-61
2023/09/11 12:23:59;;;;;;;9.73;6.97;;;30.00;80.60;;;;;;5058805;28;20056;-62
2023/09/11 12:26:26;;;;;;;10.23;6.90;;;30.00;80.80;;;;;;5059630;28;20025;-61
2023/09/11 12:28:52;;;;;;;13.65;7.07;;;29.90;80.80;;;;;;5066958;28;20084;-61
2023/09/11 12:31:19;;;;;;;13.60;6.85;;;29.90;81.10;;;;;;5073679;28;20063;-60
2023/09/11 12:33:55;;;;;;;10.88;6.60;;;30.00;81.20;;;;;;5073069;28;20025;-61
2023/09/11 12:36:21;;;;;;;12.15;6.53;;;30.10;80.80;;;;;;5074101;28;20055;-60
2023/09/11 12:38:48;;;;;;;11.40;6.57;;;30.10;79.30;;;;;;5073576;28;20550;-59